Time;durP1;ratioP1;P1;durP2;ratioP2;P2;SDS_P1;SDS_P2;PMS_P1;PMS_P2;Temp;Humidity;BMP_temperature;BMP_pressure;BME280_temperature;BME280_humidity;BME280_pressure;Samples;Min_cycle;Max_cycle;Signal;HPM_P1;HPM_P2
2022/07/11 00:02:07;;;;;;;4.03;3.70;;;16.40;99.90;;;;;;5109800;28;20430;-50
2022/07/11 00:04:34;;;;;;;4.40;4.00;;;16.40;99.90;;;;;;5109757;28;20495;-48
2022/07/11 00:07:03;;;;;;;4.73;3.57;;;16.50;99.90;;;;;;5110089;28;20450;-48
2022/07/11 00:09:31;;;;;;;4.67;4.20;;;16.40;99.90;;;;;;5109617;28;20447;-48
2022/07/11 00:11:58;;;;;;;3.73;3.43;;;16.50;99.90;;;;;;5109870;28;20527;-48
2022/07/11 00:14:25;;;;;;;4.10;3.80;;;16.50;99.90;;;;;;5113230;28;20443;-48
2022/07/11 00:16:54;;;;;;;4.80;4.00;;;16.40;99.90;;;;;;5113272;28;20527;-48
2022/07/11 00:19:23;;;;;;;4.40;4.00;;;16.40;99.90;;;;;;5113090;28;20454;-51
2022/07/11 00:21:51;;;;;;;4.70;4.17;;;16.30;99.90;;;;;;5113237;28;20504;-50
2022/07/11 00:24:20;;;;;;;5.90;3.90;;;16.30;99.90;;;;;;5113082;28;20462;-47
2022/07/11 00:26:48;;;;;;;3.80;3.03;;;16.20;99.90;;;;;;5112956;28;20943;-50
2022/07/11 00:29:15;;;;;;;3.00;2.70;;;16.20;99.90;;;;;;5112605;28;20439;-47
2022/07/11 00:31:42;;;;;;;3.67;3.37;;;16.20;99.90;;;;;;5113026;28;20939;-49
2022/07/11 00:34:09;;;;;;;4.40;3.17;;;16.20;99.90;;;;;;5113032;28;20439;-49
2022/07/11 00:36:38;;;;;;;3.80;3.50;;;16.20;99.90;;;;;;5112881;28;20451;-49
2022/07/11 00:39:05;;;;;;;5.00;4.50;;;16.20;99.90;;;;;;5112576;28;20975;-48
2022/07/11 00:41:32;;;;;;;4.20;3.80;;;16.20;99.90;;;;;;5112660;28;20978;-48
2022/07/11 00:44:01;;;;;;;4.47;3.70;;;16.20;99.90;;;;;;5112519;28;20542;-48
2022/07/11 00:46:29;;;;;;;4.33;3.97;;;16.10;99.90;;;;;;5112586;28;20438;-48
2022/07/11 00:48:57;;;;;;;6.00;4.57;;;16.10;99.90;;;;;;5112200;28;20466;-48
2022/07/11 00:51:25;;;;;;;5.03;4.60;;;16.10;99.90;;;;;;5112788;28;20438;-48
2022/07/11 00:53:56;;;;;;;4.27;3.97;;;16.20;99.90;;;;;;5112574;28;20931;-47
2022/07/11 00:56:24;;;;;;;3.97;3.67;;;16.20;99.90;;;;;;5112158;28;20458;-49
2022/07/11 00:58:52;;;;;;;6.37;3.93;;;16.10;99.90;;;;;;5112166;28;20471;-51
2022/07/11 01:01:19;;;;;;;4.90;4.50;;;16.10;99.90;;;;;;5112404;28;20443;-50
2022/07/11 01:03:47;;;;;;;4.77;4.37;;;16.10;99.90;;;;;;5111973;28;20532;-48
2022/07/11 01:06:14;;;;;;;6.37;5.70;;;16.00;99.90;;;;;;5112438;28;20446;-50
2022/07/11 01:08:41;;;;;;;4.60;4.20;;;16.00;99.90;;;;;;5111657;28;20959;-49
2022/07/11 01:11:15;;;;;;;6.00;4.00;;;16.00;99.90;;;;;;5111966;28;20820;-49
2022/07/11 01:13:43;;;;;;;6.20;5.60;;;16.00;99.90;;;;;;5112016;28;20855;-49
2022/07/11 01:16:14;;;;;;;4.10;3.80;;;16.00;99.90;;;;;;5112124;28;20486;-48
2022/07/11 01:18:43;;;;;;;4.60;4.20;;;16.00;99.90;;;;;;5111803;28;20474;-51
2022/07/11 01:21:23;;;;;;;4.20;3.80;;;15.90;99.90;;;;;;5111881;28;20488;-48
2022/07/11 01:23:53;;;;;;;4.43;4.03;;;15.70;99.90;;;;;;5111079;28;20491;-48
2022/07/11 01:26:22;;;;;;;6.70;4.20;;;15.70;99.90;;;;;;5111915;28;20485;-47
2022/07/11 01:28:49;;;;;;;4.63;3.90;;;15.50;99.90;;;;;;5111589;28;20806;-48
2022/07/11 01:31:16;;;;;;;4.90;4.23;;;15.50;99.90;;;;;;5112294;28;20511;-49
2022/07/11 01:33:43;;;;;;;5.30;3.70;;;15.50;99.90;;;;;;5111809;28;20499;-51
2022/07/11 01:36:12;;;;;;;4.67;4.27;;;15.60;99.90;;;;;;5111800;28;20443;-49
2022/07/11 01:38:39;;;;;;;4.30;3.90;;;15.40;99.90;;;;;;5111521;28;20455;-48
2022/07/11 01:41:08;;;;;;;3.70;3.40;;;15.30;99.90;;;;;;5111447;28;20668;-48
2022/07/11 01:43:35;;;;;;;4.37;3.97;;;15.20;99.90;;;;;;5111303;28;20469;-48
2022/07/11 01:46:02;;;;;;;5.43;4.27;;;15.30;99.90;;;;;;5111590;28;20443;-48
2022/07/11 01:48:29;;;;;;;5.23;4.77;;;15.40;99.90;;;;;;5111233;28;20547;-48
2022/07/11 01:50:56;;;;;;;4.50;4.10;;;15.30;99.90;;;;;;5111331;28;20455;-48
2022/07/11 01:53:23;;;;;;;3.67;3.37;;;15.40;99.90;;;;;;5111344;28;20852;-48
2022/07/11 01:55:50;;;;;;;3.60;3.27;;;15.50;99.90;;;;;;5110915;28;20816;-47
2022/07/11 01:58:18;;;;;;;4.00;3.70;;;15.60;99.90;;;;;;5111335;28;20463;-47
2022/07/11 02:00:45;;;;;;;3.60;3.30;;;15.60;99.90;;;;;;5111046;28;20451;-50
2022/07/11 02:03:12;;;;;;;4.33;3.60;;;15.70;99.90;;;;;;5110839;28;20994;-48
2022/07/11 02:05:40;;;;;;;6.23;4.57;;;15.70;99.90;;;;;;5111211;28;20499;-51
2022/07/11 02:08:14;;;;;;;4.30;3.37;;;15.80;99.90;;;;;;5110927;28;20454;-48
2022/07/11 02:10:44;;;;;;;4.43;4.00;;;15.70;99.90;;;;;;5110875;28;20453;-48
2022/07/11 02:13:13;;;;;;;4.67;3.70;;;15.70;99.90;;;;;;5111031;28;20923;-47
2022/07/11 02:15:42;;;;;;;7.93;4.33;;;15.80;99.90;;;;;;5111020;28;20854;-48
2022/07/11 02:18:10;;;;;;;3.43;3.13;;;15.90;99.90;;;;;;5110721;28;21026;-48
2022/07/11 02:20:37;;;;;;;3.43;3.13;;;15.90;99.90;;;;;;5110603;28;20435;-48
2022/07/11 02:23:05;;;;;;;5.30;3.90;;;15.90;99.90;;;;;;5111234;28;20527;-47
2022/07/11 02:25:34;;;;;;;4.67;4.27;;;15.90;99.90;;;;;;5110823;27;20521;-47
2022/07/11 02:28:02;;;;;;;4.30;3.90;;;16.00;99.90;;;;;;5110676;28;20451;-48
2022/07/11 02:30:29;;;;;;;3.93;3.63;;;16.00;99.90;;;;;;5110497;28;20948;-51
2022/07/11 02:32:57;;;;;;;4.10;3.80;;;16.00;99.90;;;;;;5110738;28;20443;-48
2022/07/11 02:35:25;;;;;;;3.80;3.50;;;16.00;99.90;;;;;;5110411;28;20450;-50
2022/07/11 02:37:52;;;;;;;3.63;2.90;;;16.00;99.90;;;;;;5110779;28;20454;-48
2022/07/11 02:40:19;;;;;;;4.00;3.67;;;15.80;99.90;;;;;;5110429;28;20563;-49
2022/07/11 02:42:46;;;;;;;5.30;3.40;;;15.50;99.90;;;;;;5110772;28;20470;-50
2022/07/11 02:45:13;;;;;;;7.43;3.70;;;15.40;99.90;;;;;;5110666;28;20495;-48
2022/07/11 02:47:42;;;;;;;3.77;3.40;;;15.30;99.90;;;;;;5110291;28;20474;-50
2022/07/11 02:50:12;;;;;;;3.80;3.40;;;15.30;99.90;;;;;;5110032;28;20423;-50
2022/07/11 02:52:40;;;;;;;6.80;3.67;;;15.30;99.90;;;;;;5110474;28;20884;-48
2022/07/11 02:55:08;;;;;;;4.37;4.07;;;15.40;99.90;;;;;;5109971;28;20458;-49
2022/07/11 02:57:35;;;;;;;3.73;3.43;;;15.50;99.90;;;;;;5110498;28;20465;-47
2022/07/11 03:00:03;;;;;;;4.10;3.70;;;15.60;99.90;;;;;;5110187;28;20443;-48
2022/07/11 03:02:30;;;;;;;5.93;3.80;;;15.70;99.90;;;;;;5110054;28;20519;-48
2022/07/11 03:04:58;;;;;;;4.57;4.17;;;15.80;99.90;;;;;;5110228;28;20474;-47
2022/07/11 03:07:27;;;;;;;4.67;4.13;;;15.80;99.90;;;;;;5110106;28;20486;-48
2022/07/11 03:09:54;;;;;;;3.90;3.53;;;15.80;99.90;;;;;;5109751;28;20427;-50
2022/07/11 03:12:21;;;;;;;6.97;3.77;;;15.80;99.90;;;;;;5109980;28;20511;-47
2022/07/11 03:14:48;;;;;;;7.20;3.90;;;15.70;99.90;;;;;;5110265;28;20451;-48
2022/07/11 03:17:15;;;;;;;3.83;3.10;;;15.70;99.90;;;;;;5110045;28;20943;-47
2022/07/11 03:19:42;;;;;;;4.00;3.47;;;15.70;99.90;;;;;;5109937;28;20443;-50
2022/07/11 03:22:10;;;;;;;9.83;3.83;;;15.70;99.90;;;;;;5110177;28;20503;-47
2022/07/11 03:24:38;;;;;;;4.47;3.70;;;15.70;99.90;;;;;;5109979;28;20496;-48
2022/07/11 03:27:06;;;;;;;5.10;4.03;;;15.70;99.90;;;;;;5109822;28;20435;-48
2022/07/11 03:29:33;;;;;;;3.50;3.20;;;15.70;99.90;;;;;;5109851;28;20491;-48
2022/07/11 03:32:00;;;;;;;3.93;3.30;;;15.80;99.90;;;;;;5110095;28;20455;-49
2022/07/11 03:34:27;;;;;;;4.87;4.33;;;15.70;99.90;;;;;;5110093;28;20488;-49
2022/07/11 03:36:54;;;;;;;3.47;3.17;;;15.60;99.90;;;;;;5109952;28;20449;-48
2022/07/11 03:39:22;;;;;;;5.93;3.70;;;15.60;99.90;;;;;;5109738;28;20481;-49
2022/07/11 03:41:50;;;;;;;3.40;3.10;;;15.60;99.90;;;;;;5110072;28;20453;-47
2022/07/11 03:44:17;;;;;;;3.67;3.37;;;15.50;99.90;;;;;;5109829;28;20471;-48
2022/07/11 03:46:44;;;;;;;3.80;3.20;;;15.50;99.90;;;;;;5110087;28;20446;-48
2022/07/11 03:49:11;;;;;;;4.07;3.07;;;15.50;99.90;;;;;;5153735;22;20487;-44
2022/07/11 03:51:38;;;;;;;3.40;3.10;;;15.60;99.90;;;;;;5093415;28;20443;-48
2022/07/11 03:54:05;;;;;;;3.30;3.10;;;15.60;99.90;;;;;;5093391;28;20496;-46
2022/07/11 03:56:32;;;;;;;3.37;2.80;;;15.40;99.90;;;;;;5093139;28;20734;-48
2022/07/11 03:59:01;;;;;;;4.07;3.17;;;15.30;99.90;;;;;;5093024;28;20805;-47
2022/07/11 04:01:28;;;;;;;3.70;2.80;;;15.20;99.90;;;;;;5093215;28;20486;-45
2022/07/11 04:03:55;;;;;;;3.87;3.30;;;15.30;99.90;;;;;;5092868;28;20459;-45
2022/07/11 04:06:22;;;;;;;4.37;3.20;;;15.10;99.90;;;;;;5093094;28;20434;-49
2022/07/11 04:08:49;;;;;;;4.00;3.60;;;14.80;99.90;;;;;;5092477;28;20897;-46
2022/07/11 04:11:16;;;;;;;5.33;3.70;;;14.80;99.90;;;;;;5093116;28;20456;-48
2022/07/11 04:13:43;;;;;;;3.90;3.50;;;14.80;99.90;;;;;;5092958;28;20466;-49
2022/07/11 04:16:12;;;;;;;5.30;3.07;;;14.90;99.90;;;;;;5093409;28;20443;-48
2022/07/11 04:18:39;;;;;;;3.33;3.03;;;15.00;99.90;;;;;;5092742;28;20497;-46
2022/07/11 04:21:06;;;;;;;5.00;3.43;;;15.10;99.90;;;;;;5092708;28;20916;-51
2022/07/11 04:23:33;;;;;;;5.87;2.73;;;15.30;99.90;;;;;;5092818;28;20459;-48
2022/07/11 04:26:00;;;;;;;5.60;3.73;;;15.30;99.90;;;;;;5092707;28;20478;-50
2022/07/11 04:28:27;;;;;;;4.30;3.47;;;15.30;99.90;;;;;;5092546;28;20491;-48
2022/07/11 04:30:54;;;;;;;3.80;3.50;;;15.30;99.90;;;;;;5092558;28;20493;-45
2022/07/11 04:33:22;;;;;;;4.87;3.40;;;15.40;99.90;;;;;;5092648;28;20439;-46
2022/07/11 04:35:49;;;;;;;2.80;2.60;;;15.50;99.90;;;;;;5092873;28;20493;-45
2022/07/11 04:38:21;;;;;;;3.70;3.07;;;15.40;99.90;;;;;;5092129;28;20878;-46
2022/07/11 04:40:48;;;;;;;4.17;3.77;;;15.40;99.90;;;;;;5092389;28;20442;-47
2022/07/11 04:43:15;;;;;;;6.80;3.60;;;15.50;99.90;;;;;;5092467;28;20440;-47
2022/07/11 04:45:42;;;;;;;6.60;3.50;;;15.60;99.90;;;;;;5092363;28;20470;-47
2022/07/11 04:48:09;;;;;;;4.03;3.70;;;15.60;99.90;;;;;;5092090;28;20484;-45
2022/07/11 04:50:38;;;;;;;4.60;3.60;;;15.60;99.90;;;;;;5092171;28;20440;-49
2022/07/11 04:53:05;;;;;;;3.57;3.27;;;15.60;99.90;;;;;;5092241;28;20456;-45
2022/07/11 04:55:32;;;;;;;3.90;3.60;;;15.70;99.90;;;;;;5091972;28;20996;-47
2022/07/11 04:57:59;;;;;;;4.03;3.63;;;15.60;99.90;;;;;;5091966;28;21032;-46
2022/07/11 05:00:26;;;;;;;5.10;3.57;;;15.60;99.90;;;;;;5091814;28;20427;-51
2022/07/11 05:02:55;;;;;;;3.20;2.90;;;15.60;99.90;;;;;;5091896;28;20448;-45
2022/07/11 05:05:23;;;;;;;3.80;3.33;;;15.60;99.90;;;;;;5091845;28;20511;-46
2022/07/11 05:07:52;;;;;;;4.00;3.70;;;15.60;99.90;;;;;;5091792;28;20451;-46
2022/07/11 05:10:19;;;;;;;3.43;2.87;;;15.70;99.90;;;;;;5091486;28;20855;-46
2022/07/11 05:12:46;;;;;;;3.90;3.50;;;15.70;99.90;;;;;;5091872;28;20435;-46
2022/07/11 05:15:13;;;;;;;3.47;3.23;;;15.80;99.90;;;;;;5091882;28;20440;-50
2022/07/11 05:17:40;;;;;;;3.93;3.63;;;15.80;99.90;;;;;;5091903;28;20902;-46
2022/07/11 05:20:08;;;;;;;5.63;3.27;;;15.80;99.90;;;;;;5091546;28;20455;-45
2022/07/11 05:22:35;;;;;;;3.17;2.80;;;15.80;99.90;;;;;;5091665;28;20507;-46
2022/07/11 05:25:04;;;;;;;3.70;3.40;;;15.80;99.90;;;;;;5091405;28;20532;-48
2022/07/11 05:27:31;;;;;;;3.20;2.90;;;15.90;99.90;;;;;;5091793;28;20475;-46
2022/07/11 05:29:58;;;;;;;3.83;3.10;;;15.90;99.90;;;;;;5091338;28;20497;-45
2022/07/11 05:32:25;;;;;;;3.40;3.10;;;15.90;99.90;;;;;;5091379;28;20500;-46
2022/07/11 05:34:52;;;;;;;5.17;3.60;;;15.90;99.90;;;;;;5091462;28;20454;-48
2022/07/11 05:37:19;;;;;;;3.40;3.10;;;15.90;99.90;;;;;;5091275;28;20470;-46
2022/07/11 05:39:46;;;;;;;3.93;3.53;;;15.90;99.90;;;;;;5091081;28;20524;-45
2022/07/11 05:42:15;;;;;;;4.13;3.77;;;15.80;99.90;;;;;;5091332;28;20448;-46
2022/07/11 05:44:42;;;;;;;3.37;3.07;;;15.80;99.90;;;;;;5091248;28;20548;-45
2022/07/11 05:47:09;;;;;;;4.30;3.10;;;15.80;99.90;;;;;;5091623;28;21006;-49
2022/07/11 05:49:36;;;;;;;4.13;3.50;;;15.70;99.90;;;;;;5090776;28;20478;-46
2022/07/11 05:52:03;;;;;;;3.87;3.57;;;15.70;99.90;;;;;;5090876;28;20456;-45
2022/07/11 05:54:30;;;;;;;5.17;3.60;;;15.70;99.90;;;;;;5091068;28;20440;-46
2022/07/11 05:56:57;;;;;;;4.43;3.40;;;15.70;99.90;;;;;;5089600;28;20447;-50
2022/07/11 05:59:26;;;;;;;5.23;3.33;;;15.70;99.90;;;;;;5090596;28;20505;-46
2022/07/11 06:01:52;;;;;;;5.30;3.70;;;15.70;99.90;;;;;;5091105;28;20452;-46
2022/07/11 06:04:19;;;;;;;3.90;2.93;;;15.70;99.90;;;;;;5090818;28;20498;-46
2022/07/11 06:06:47;;;;;;;3.70;3.27;;;15.70;99.90;;;;;;5090426;28;20455;-48
2022/07/11 06:09:14;;;;;;;3.40;3.10;;;15.70;99.90;;;;;;5089683;28;20475;-45
2022/07/11 06:11:41;;;;;;;3.67;3.37;;;15.80;99.90;;;;;;5090422;28;20944;-46
2022/07/11 06:14:09;;;;;;;4.03;2.93;;;15.80;99.90;;;;;;5090875;28;20509;-45
2022/07/11 06:16:38;;;;;;;4.17;3.10;;;15.80;99.90;;;;;;5091084;28;20493;-48
2022/07/11 06:19:05;;;;;;;3.43;3.13;;;15.90;99.90;;;;;;5090412;28;20984;-46
2022/07/11 06:21:33;;;;;;;4.33;3.90;;;15.90;99.90;;;;;;5090684;28;20544;-48
2022/07/11 06:24:00;;;;;;;5.60;4.70;;;16.00;99.90;;;;;;5090808;28;20432;-46
2022/07/11 06:26:27;;;;;;;20.20;14.50;;;16.10;99.90;;;;;;5090594;28;20829;-45
2022/07/11 06:28:55;;;;;;;9.43;5.30;;;16.00;99.90;;;;;;5090190;28;20544;-46
2022/07/11 06:31:22;;;;;;;3.70;3.30;;;16.10;99.90;;;;;;5090806;28;20523;-50
2022/07/11 06:33:54;;;;;;;5.07;4.40;;;16.20;99.90;;;;;;5090436;28;20451;-46
2022/07/11 06:36:22;;;;;;;4.33;3.40;;;16.10;99.90;;;;;;5090452;28;20485;-46
2022/07/11 06:38:50;;;;;;;3.60;3.13;;;16.10;99.90;;;;;;5090084;28;21105;-46
2022/07/11 06:41:17;;;;;;;4.37;2.87;;;16.20;99.90;;;;;;5090338;28;20497;-47
2022/07/11 06:43:44;;;;;;;6.50;3.53;;;16.30;99.90;;;;;;5090232;28;20444;-45
2022/07/11 06:46:11;;;;;;;3.00;2.70;;;16.40;99.90;;;;;;5090236;28;20739;-46
2022/07/11 06:48:38;;;;;;;3.33;2.73;;;16.40;99.90;;;;;;5089809;28;20455;-47
2022/07/11 06:51:06;;;;;;;3.10;2.30;;;16.50;99.90;;;;;;5090137;28;20482;-50
2022/07/11 06:53:33;;;;;;;3.90;2.80;;;16.60;99.90;;;;;;5090130;28;20634;-46
2022/07/11 06:56:00;;;;;;;3.70;2.63;;;16.50;99.90;;;;;;5090125;28;20463;-46
2022/07/11 06:58:33;;;;;;;122.77;14.37;;;16.60;99.90;;;;;;5090023;28;20463;-48
2022/07/11 07:01:01;;;;;;;216.67;29.97;;;16.60;99.90;;;;;;5089907;28;20504;-47
2022/07/11 07:03:29;;;;;;;991.70;134.27;;;16.70;99.90;;;;;;5090027;28;20497;-47
2022/07/11 07:05:56;;;;;;;1962.97;413.43;;;16.80;99.90;;;;;;5089199;28;20467;-50
2022/07/11 07:08:29;;;;;;;3.70;3.10;;;16.80;99.90;;;;;;5089556;28;20467;-50
2022/07/11 07:10:57;;;;;;;1781.70;292.53;;;16.80;99.90;;;;;;5089398;28;20526;-47
2022/07/11 07:13:25;;;;;;;1307.67;207.33;;;16.90;99.90;;;;;;5089877;28;20459;-45
2022/07/11 07:15:53;;;;;;;177.80;22.57;;;17.00;99.90;;;;;;5089066;28;20472;-47
2022/07/11 07:18:20;;;;;;;2.83;2.30;;;17.00;99.90;;;;;;5089090;28;20868;-48
2022/07/11 07:20:48;;;;;;;86.33;13.43;;;17.00;99.90;;;;;;5088701;28;20466;-46
2022/07/11 07:23:15;;;;;;;1999.90;999.90;;;17.10;99.90;;;;;;5092161;28;20458;-47
2022/07/11 07:25:44;;;;;;;1999.90;685.07;;;17.50;99.90;;;;;;5093754;28;20463;-46
2022/07/11 07:28:11;;;;;;;1999.90;793.87;;;17.80;99.90;;;;;;5093782;28;20611;-46
2022/07/11 07:30:38;;;;;;;77.43;16.27;;;17.80;99.90;;;;;;5093392;28;20453;-42
2022/07/11 07:33:05;;;;;;;6.20;3.23;;;17.90;99.90;;;;;;5094236;28;20447;-46
2022/07/11 07:35:32;;;;;;;2.97;2.67;;;18.00;99.90;;;;;;5093739;28;20493;-46
2022/07/11 07:38:00;;;;;;;4.70;2.50;;;18.20;99.90;;;;;;5093679;28;20517;-47
2022/07/11 07:40:27;;;;;;;2.73;2.37;;;18.10;99.90;;;;;;5093358;28;21101;-47
2022/07/11 07:42:56;;;;;;;3.17;2.43;;;18.30;99.90;;;;;;5093754;28;20444;-48
2022/07/11 07:45:23;;;;;;;4.70;2.10;;;18.30;99.90;;;;;;5093401;28;20880;-48
2022/07/11 07:47:50;;;;;;;2.20;2.00;;;18.30;99.90;;;;;;5093203;28;20475;-51
2022/07/11 07:50:17;;;;;;;4.97;2.63;;;18.70;99.90;;;;;;5092850;28;20448;-43
2022/07/11 07:52:44;;;;;;;1432.32;262.10;;;19.10;99.90;;;;;;5093065;28;20902;-47
2022/07/11 07:55:12;;;;;;;13.53;4.13;;;19.60;99.90;;;;;;5093481;28;20662;-47
2022/07/11 07:57:39;;;;;;;201.77;34.40;;;19.90;99.90;;;;;;5093186;28;20459;-51
2022/07/11 08:02:53;;;;;;;1129.20;491.87;;;20.50;99.90;;;;;;5092426;28;20846;-45
2022/07/11 08:05:20;;;;;;;71.77;63.43;;;20.40;99.90;;;;;;5092824;28;21046;-46
2022/07/11 08:07:47;;;;;;;1999.90;613.23;;;22.80;99.90;;;;;;5092844;28;20520;-47
2022/07/11 08:10:15;;;;;;;37.10;22.27;;;23.10;99.90;;;;;;5092513;28;20459;-47
2022/07/11 08:12:42;;;;;;;50.30;27.77;;;23.20;99.90;;;;;;5092944;28;20466;-48
2022/07/11 08:15:11;;;;;;;80.67;13.03;;;23.30;99.90;;;;;;5092972;28;20432;-50
2022/07/11 08:17:38;;;;;;;238.47;161.40;;;22.80;99.90;;;;;;5092895;28;20546;-49
2022/07/11 08:20:06;;;;;;;571.43;326.10;;;26.00;99.90;;;;;;5092118;28;20853;-48
2022/07/11 08:22:33;;;;;;;106.57;83.87;;;;;;;;;;5092630;28;20424;-48
2022/07/11 08:25:00;;;;;;;52.13;46.33;;;36.80;55.10;;;;;;5092626;28;20554;-48
2022/07/11 08:27:27;;;;;;;6.87;4.60;;;35.30;54.60;;;;;;5091837;28;20498;-48
2022/07/11 08:29:54;;;;;;;11.30;10.20;;;33.70;56.70;;;;;;5092343;28;20436;-47
2022/07/11 08:32:24;;;;;;;241.77;123.90;;;31.90;57.80;;;;;;5092563;28;20478;-49
2022/07/11 08:34:51;;;;;;;5.13;3.30;;;30.60;62.40;;;;;;5091941;28;20436;-47
2022/07/11 08:37:18;;;;;;;210.83;28.27;;;29.60;66.40;;;;;;5092523;28;20439;-49
2022/07/11 08:39:44;;;;;;;2.37;1.67;;;28.50;68.30;;;;;;5092327;28;20485;-47
2022/07/11 08:42:12;;;;;;;244.07;100.93;;;27.00;73.90;;;;;;5092511;28;20876;-47
2022/07/11 08:44:39;;;;;;;6.97;6.13;;;26.30;76.10;;;;;;5092404;28;20467;-47
2022/07/11 08:47:07;;;;;;;121.27;58.87;;;25.40;80.10;;;;;;5092254;28;20467;-45
2022/07/11 08:49:36;;;;;;;29.00;23.20;;;24.70;82.20;;;;;;5091643;28;20469;-50
2022/07/11 08:52:04;;;;;;;7.50;5.80;;;24.60;86.30;;;;;;5092406;28;20510;-47
2022/07/11 08:54:31;;;;;;;67.83;35.30;;;24.50;88.40;;;;;;5092080;28;20478;-48
2022/07/11 08:56:58;;;;;;;154.33;28.77;;;24.30;87.10;;;;;;5092093;28;20432;-47
2022/07/11 08:59:28;;;;;;;58.03;32.30;;;23.90;86.10;;;;;;5091784;28;20512;-49
2022/07/11 09:01:58;;;;;;;9.20;4.00;;;23.70;86.80;;;;;;5092009;28;20435;-42
2022/07/11 09:04:25;;;;;;;3.10;1.90;;;23.40;86.00;;;;;;5091781;28;20518;-46
2022/07/11 09:06:53;;;;;;;35.97;30.90;;;23.20;90.90;;;;;;5091325;28;20467;-47
2022/07/11 09:09:20;;;;;;;150.37;51.73;;;23.00;91.60;;;;;;5091332;28;20485;-44
2022/07/11 09:11:52;;;;;;;8.20;6.40;;;22.90;90.40;;;;;;5091553;28;20516;-47
2022/07/11 09:14:23;;;;;;;25.90;8.80;;;22.90;88.10;;;;;;5091568;28;20509;-46
2022/07/11 09:16:55;;;;;;;3.57;3.23;;;22.50;91.10;;;;;;5091585;28;20438;-48
2022/07/11 09:19:23;;;;;;;7.03;2.87;;;22.30;92.30;;;;;;5090844;28;20491;-48
2022/07/11 09:27:42;;;;;;;15.97;4.53;;;22.00;91.30;;;;;;5089654;28;20470;-48
2022/07/11 09:30:27;;;;;;;561.27;455.90;;;22.20;91.70;;;;;;5089360;28;20493;-48
2022/07/11 09:32:55;;;;;;;25.17;18.23;;;22.10;92.10;;;;;;5089925;28;20562;-47
2022/07/11 09:35:24;;;;;;;107.97;64.83;;;22.20;91.20;;;;;;5089731;28;20461;-46
2022/07/11 09:37:52;;;;;;;25.13;13.37;;;22.00;92.00;;;;;;5089308;28;20874;-46
2022/07/11 09:40:21;;;;;;;12.23;6.73;;;22.00;92.60;;;;;;5089932;28;20973;-50
2022/07/11 09:42:50;;;;;;;3.90;2.90;;;22.10;93.00;;;;;;5089986;28;20432;-48
2022/07/11 09:45:19;;;;;;;4.90;3.60;;;21.90;92.10;;;;;;5089973;28;20471;-50
2022/07/11 09:50:19;;;;;;;76.90;23.97;;;22.00;92.60;;;;;;5144546;22;20515;-48
2022/07/11 09:53:04;;;;;;;2.93;2.40;;;22.50;93.50;;;;;;5091476;28;20484;-46
2022/07/11 09:55:32;;;;;;;3.50;2.40;;;21.50;93.30;;;;;;5090857;28;20981;-43
2022/07/11 09:57:59;;;;;;;4.10;2.60;;;21.50;95.00;;;;;;5090754;28;20459;-46
2022/07/11 10:00:26;;;;;;;5.40;2.97;;;21.20;95.20;;;;;;5090273;28;20493;-45
2022/07/11 10:02:55;;;;;;;3.70;2.50;;;21.20;96.10;;;;;;5090586;28;20866;-46
2022/07/11 10:05:22;;;;;;;3.70;2.60;;;21.30;94.40;;;;;;5090737;28;20470;-46
2022/07/11 10:07:49;;;;;;;3.27;2.63;;;21.10;96.00;;;;;;5090496;28;20435;-46
2022/07/11 10:10:18;;;;;;;2.70;2.50;;;21.20;96.10;;;;;;5090033;28;20432;-46
2022/07/11 10:12:46;;;;;;;4.40;2.80;;;21.20;95.80;;;;;;5090764;28;20951;-46
2022/07/11 10:15:16;;;;;;;3.20;2.30;;;21.30;96.40;;;;;;5090633;28;20447;-51
2022/07/11 10:17:50;;;;;;;4.23;2.60;;;21.40;96.80;;;;;;5090738;28;20582;-45
2022/07/11 10:20:24;;;;;;;6.23;2.87;;;21.40;96.70;;;;;;5090396;28;20455;-45
2022/07/11 10:22:57;;;;;;;2.73;2.50;;;21.20;95.70;;;;;;5090341;28;20869;-46
2022/07/11 10:25:32;;;;;;;11.90;3.50;;;21.10;97.10;;;;;;5090316;28;20588;-49
2022/07/11 10:28:19;;;;;;;7.17;2.83;;;20.50;94.90;;;;;;5090164;28;20484;-46
2022/07/11 10:30:47;;;;;;;4.33;2.40;;;20.60;96.50;;;;;;5090040;28;20912;-45
2022/07/11 10:33:15;;;;;;;3.13;2.20;;;20.70;97.40;;;;;;5089559;28;20939;-51
2022/07/11 10:35:44;;;;;;;3.37;2.63;;;20.90;98.00;;;;;;5089851;28;20463;-46
2022/07/11 10:38:11;;;;;;;2.97;2.60;;;20.90;97.00;;;;;;5090039;28;20459;-50
2022/07/11 10:40:50;;;;;;;3.13;2.23;;;20.90;96.40;;;;;;5089853;28;20970;-46
2022/07/11 10:43:35;;;;;;;3.50;2.37;;;21.10;98.30;;;;;;5090367;28;20686;-48
2022/07/11 10:46:04;;;;;;;3.13;2.50;;;21.00;97.00;;;;;;5090199;28;20471;-45
2022/07/11 10:48:53;;;;;;;3.87;2.57;;;21.00;99.30;;;;;;5089999;28;20556;-46
2022/07/11 10:51:27;;;;;;;5.63;2.37;;;21.10;99.20;;;;;;5090157;28;20497;-46
2022/07/11 10:53:54;;;;;;;3.10;2.03;;;21.00;96.90;;;;;;5089607;28;20770;-46
2022/07/11 10:56:44;;;;;;;4.40;2.90;;;21.20;98.00;;;;;;5089671;28;20443;-46
2022/07/11 10:59:15;;;;;;;3.70;2.73;;;21.10;96.30;;;;;;5089436;28;20471;-45
2022/07/11 11:02:05;;;;;;;4.70;2.73;;;21.20;97.50;;;;;;5089434;28;20522;-50
2022/07/11 11:04:49;;;;;;;4.40;2.57;;;21.20;98.40;;;;;;5089715;28;20460;-45
2022/07/11 11:07:44;;;;;;;2.53;2.10;;;20.90;97.50;;;;;;5089859;28;21090;-46
2022/07/11 11:10:53;;;;;;;4.03;2.47;;;21.10;96.20;;;;;;5042366;28;20460;-45
2022/07/11 11:13:22;;;;;;;3.43;2.30;;;21.30;96.60;;;;;;5089857;28;20453;-46
2022/07/11 11:15:51;;;;;;;2.30;2.07;;;21.40;97.50;;;;;;5089727;28;20434;-48
2022/07/11 11:18:41;;;;;;;2.83;2.00;;;21.40;96.70;;;;;;5089838;28;20459;-47
2022/07/11 11:21:19;;;;;;;2.93;2.73;;;21.40;96.90;;;;;;5089912;28;20445;-46
2022/07/11 11:24:02;;;;;;;2.67;2.00;;;21.40;97.20;;;;;;5089806;28;20827;-46
2022/07/11 11:26:50;;;;;;;3.60;2.07;;;21.50;99.30;;;;;;5089719;28;20562;-46
2022/07/11 11:29:24;;;;;;;3.10;2.40;;;21.50;96.60;;;;;;5089264;28;20517;-46
2022/07/11 11:31:53;;;;;;;2.37;1.70;;;21.50;97.80;;;;;;5089925;28;20938;-45
2022/07/11 11:34:20;;;;;;;2.17;1.97;;;21.40;95.80;;;;;;5089871;28;20451;-46
2022/07/11 11:36:54;;;;;;;2.80;2.03;;;21.50;98.30;;;;;;5089604;28;20485;-46
2022/07/11 11:39:35;;;;;;;2.60;1.90;;;21.60;98.80;;;;;;5089852;28;20463;-45
2022/07/11 11:42:07;;;;;;;2.70;2.03;;;21.30;97.20;;;;;;5089760;28;20443;-45
2022/07/11 11:44:49;;;;;;;2.17;1.97;;;21.30;99.20;;;;;;5089846;28;20436;-46
2022/07/11 11:47:16;;;;;;;1.90;1.70;;;21.50;97.60;;;;;;5089577;28;20812;-46
2022/07/11 11:49:44;;;;;;;4.43;2.20;;;21.40;98.50;;;;;;5089615;28;20619;-46
2022/07/11 11:52:12;;;;;;;4.93;2.43;;;21.40;96.20;;;;;;5089493;28;20488;-45
2022/07/11 11:54:40;;;;;;;3.40;1.87;;;21.40;98.60;;;;;;5089472;28;20803;-45
2022/07/11 11:57:08;;;;;;;3.10;1.73;;;21.30;96.30;;;;;;5089578;28;20874;-45
2022/07/11 11:59:37;;;;;;;3.17;2.00;;;21.30;97.30;;;;;;5089084;28;20452;-45
2022/07/11 12:02:04;;;;;;;2.47;1.50;;;21.20;97.30;;;;;;5089267;28;20512;-45
2022/07/11 12:04:32;;;;;;;4.23;2.10;;;21.10;97.20;;;;;;5089851;28;20447;-45
2022/07/11 12:07:01;;;;;;;2.30;1.70;;;21.20;96.90;;;;;;5088910;28;20839;-46
2022/07/11 12:14:56;;;;;;;2.30;2.00;;;21.60;98.60;;;;;;5093032;28;20414;-45
2022/07/11 12:17:28;;;;;;;3.70;1.80;;;21.70;97.30;;;;;;5093054;28;20447;-47
2022/07/11 12:19:55;;;;;;;3.30;2.20;;;21.60;96.20;;;;;;5092502;28;21021;-47
2022/07/11 12:22:22;;;;;;;3.10;1.93;;;21.50;96.70;;;;;;5092307;28;20588;-45
2022/07/11 12:24:50;;;;;;;2.80;1.43;;;21.30;96.50;;;;;;5092165;28;20443;-46
2022/07/11 12:27:20;;;;;;;2.80;2.00;;;21.30;96.00;;;;;;5092986;28;20467;-50
2022/07/11 12:29:50;;;;;;;5.60;2.20;;;21.40;97.60;;;;;;5087207;28;20460;-49
2022/07/11 12:32:20;;;;;;;1.90;1.53;;;21.40;98.40;;;;;;5072311;28;20452;-45
2022/07/11 12:34:49;;;;;;;2.20;2.00;;;21.50;98.00;;;;;;5072079;28;20439;-45
2022/07/11 12:37:18;;;;;;;2.40;1.63;;;21.60;98.30;;;;;;5070760;28;20440;-50
2022/07/11 12:39:51;;;;;;;3.23;1.73;;;21.80;97.20;;;;;;5070119;28;20476;-46
2022/07/11 12:42:26;;;;;;;5.60;1.90;;;22.00;96.00;;;;;;5070307;28;20459;-46
2022/07/11 12:44:58;;;;;;;5.47;1.80;;;21.90;95.60;;;;;;5070800;28;20509;-48
2022/07/11 12:47:28;;;;;;;11.93;2.60;;;21.90;96.80;;;;;;5070893;28;20476;-48
2022/07/11 12:49:56;;;;;;;2.27;1.60;;;21.90;96.80;;;;;;5070390;28;20473;-47
2022/07/11 12:52:23;;;;;;;2.43;1.47;;;21.70;95.90;;;;;;5071359;28;20449;-48
2022/07/11 12:54:52;;;;;;;1.83;1.50;;;21.60;96.60;;;;;;5071948;28;20452;-46
2022/07/11 12:57:22;;;;;;;1.80;1.47;;;21.60;96.10;;;;;;5071759;28;20444;-46
2022/07/11 12:59:49;;;;;;;2.43;1.87;;;21.70;95.90;;;;;;5071316;28;20494;-50
2022/07/11 13:02:17;;;;;;;2.70;1.70;;;21.80;97.50;;;;;;5071038;28;20510;-46
2022/07/11 13:04:48;;;;;;;2.30;1.40;;;21.90;97.50;;;;;;5071720;28;20463;-49
2022/07/11 13:10:15;;;;;;;4.10;2.33;;;21.70;97.40;;;;;;5071217;28;20550;-47
2022/07/11 13:12:43;;;;;;;5.00;1.80;;;21.90;97.30;;;;;;5071466;28;20843;-46